Colstrip, MT (59323)

4:42 PM MDT on September 19, 2014 (GMT -0600)
Water Plant | Change Station
CLOSE
Current Station
Personal Weather Station
Location: Colstrip, MT
Elevation: 3255 ft
Nearby Weather Stations

Elev 3255 ft 45.89 °N, 106.63 °W | Updated 8 minutes ago

Partly Cloudy
Partly Cloudy
75.7 °F
Feels Like 78 °F
N
4.0
Wind Variable Wind from West
Gusts 14.0 mph

Today
High -- | Low -- °F
--% Chance of Precip.
Yesterday
High -- | Low -- °F
Precip. -- in
6:49 AM 7:09 PM
Waning Crescent, 16% visible
Pressure 29.79 in
Visibility 10.0 miles
Clouds Few 8000 ft
Heat Index 78 °F
Dew Point 50 °F
Humidity 41%
Rainfall 0.00 in
Snow Depth 0 in , 0 in , 0 in
UV 3 out of 12
Pollen 5.40 out of 12
Air Quality Not available.
Flu Activity Not available.
METAR KMLS 192153Z AUTO 30018G23KT 10SM FEW080 25/08 A2984 RMK AO2 SLP087 T02500078

More Conditions Fewer Conditions

Pressure 29.79 in
Visibility 10.0 miles
Clouds Few 8000 ft
Heat Index 78 °F
Dew Point 50 °F
Humidity 41%
Rainfall 0.00 in
Snow Depth 0 in , 0 in , 0 in
UV 3 out of 12
Pollen 5.40 out of 12
Air Quality Not available.
Flu Activity Not available.
METAR KMLS 192153Z AUTO 30018G23KT 10SM FEW080 25/08 A2984 RMK AO2 SLP087 T02500078

More Conditions Fewer Conditions

10-Day Weather Forecast

Almanac

Astronomy

Sep. 19, 2014 Rise Set
Actual Time 6:49 AM MDT 7:09 PM MDT
Civil Twilight 6:19 AM MDT 7:39 PM MDT
Nautical Twilight 5:44 AM MDT 8:14 PM MDT
Astronomical Twilight 5:08 AM MDT 8:50 PM MDT
Moon 2:26 AM MDT 4:49 PM MDT
Length of Visible Light 13h 19m
Length of Day
12h 20m
Tomorrow will be 3m 13s shorter.
Waning Crescent, 16% of the Moon is Illuminated
Today
Waning Crescent
Sep 24
New
Oct 1
First Quarter
Oct 8
Full
Oct 15
Last Quarter

Today's Extremes

State Highs State Lows

Community

WunderPhotos

Upload Photos

1,754,722 photos uploaded!

WunderBlogs® & News

By Dr. Jeff Masters
Director of Meteorology, Weather Underground
By Kari Strenfel
Meteorologist, Weather Underground
By Christopher C. Burt
Weather Historian, Weather Underground
September 19, 2014
September 19, 2014
September 19, 2014

Nearby

Snow Depth

Station Depth Elevation
Barker Lakes 0 in 8250 ft
Fisher Creek 0 in 9100 ft
Black Pine 0 in 7210 ft
Wood Creek 1 in 5960 ft
Spur Park 0 in 8100 ft

Earthquake Activity

City Distance Mag. Time & Date
No recent earthquake activity has been reported nearby.
Minimum magnitude displayed is 2.5.

Coastal Water Temperatures

Place Temperature
No Stations Reporting

Nearby Weather Stations